sensor_id;sensor_type;location;lat;lon;timestamp;P1;durP1;ratioP1;P2;durP2;ratioP2
5379;SDS011;2713;42.680;23.310;2023-02-18T00:02:10;29.43;;;18.97;;
5379;SDS011;2713;42.680;23.310;2023-02-18T00:04:36;30.80;;;18.40;;
5379;SDS011;2713;42.680;23.310;2023-02-18T00:07:03;28.17;;;17.80;;
5379;SDS011;2713;42.680;23.310;2023-02-18T00:09:30;28.80;;;18.40;;
5379;SDS011;2713;42.680;23.310;2023-02-18T00:11:58;28.73;;;17.87;;
5379;SDS011;2713;42.680;23.310;2023-02-18T00:14:25;31.67;;;19.07;;
5379;SDS011;2713;42.680;23.310;2023-02-18T00:16:53;29.63;;;17.97;;
5379;SDS011;2713;42.680;23.310;2023-02-18T00:19:20;28.17;;;18.03;;
5379;SDS011;2713;42.680;23.310;2023-02-18T00:21:47;29.57;;;17.37;;
5379;SDS011;2713;42.680;23.310;2023-02-18T00:24:14;24.60;;;17.00;;
5379;SDS011;2713;42.680;23.310;2023-02-18T00:26:41;31.43;;;19.53;;
5379;SDS011;2713;42.680;23.310;2023-02-18T00:29:10;27.20;;;17.97;;
5379;SDS011;2713;42.680;23.310;2023-02-18T00:31:37;29.73;;;19.70;;
5379;SDS011;2713;42.680;23.310;2023-02-18T00:34:05;27.20;;;18.07;;
5379;SDS011;2713;42.680;23.310;2023-02-18T00:36:32;24.47;;;16.47;;
5379;SDS011;2713;42.680;23.310;2023-02-18T00:39:02;27.53;;;17.07;;
5379;SDS011;2713;42.680;23.310;2023-02-18T00:41:31;26.07;;;18.00;;
5379;SDS011;2713;42.680;23.310;2023-02-18T00:43:59;35.27;;;18.17;;
5379;SDS011;2713;42.680;23.310;2023-02-18T00:46:27;25.37;;;17.73;;
5379;SDS011;2713;42.680;23.310;2023-02-18T00:48:54;28.17;;;19.50;;
5379;SDS011;2713;42.680;23.310;2023-02-18T00:51:22;31.90;;;18.87;;
5379;SDS011;2713;42.680;23.310;2023-02-18T00:53:49;28.73;;;18.30;;
5379;SDS011;2713;42.680;23.310;2023-02-18T00:56:17;22.73;;;16.00;;
5379;SDS011;2713;42.680;23.310;2023-02-18T00:58:44;23.10;;;16.57;;
5379;SDS011;2713;42.680;23.310;2023-02-18T01:01:11;26.80;;;16.70;;
5379;SDS011;2713;42.680;23.310;2023-02-18T01:03:41;33.80;;;17.50;;
5379;SDS011;2713;42.680;23.310;2023-02-18T01:06:09;25.67;;;17.00;;
5379;SDS011;2713;42.680;23.310;2023-02-18T01:08:37;27.67;;;18.40;;
5379;SDS011;2713;42.680;23.310;2023-02-18T01:11:05;27.20;;;17.80;;
5379;SDS011;2713;42.680;23.310;2023-02-18T01:13:34;27.70;;;16.77;;
5379;SDS011;2713;42.680;23.310;2023-02-18T01:16:00;26.43;;;18.07;;
5379;SDS011;2713;42.680;23.310;2023-02-18T01:18:28;32.10;;;17.67;;
5379;SDS011;2713;42.680;23.310;2023-02-18T01:20:57;22.23;;;15.20;;
5379;SDS011;2713;42.680;23.310;2023-02-18T01:23:24;23.00;;;15.67;;
5379;SDS011;2713;42.680;23.310;2023-02-18T01:25:51;25.93;;;17.37;;
5379;SDS011;2713;42.680;23.310;2023-02-18T01:28:18;23.40;;;16.67;;
5379;SDS011;2713;42.680;23.310;2023-02-18T01:30:49;24.03;;;16.17;;
5379;SDS011;2713;42.680;23.310;2023-02-18T01:33:17;27.33;;;18.00;;
5379;SDS011;2713;42.680;23.310;2023-02-18T01:35:45;24.10;;;16.87;;
5379;SDS011;2713;42.680;23.310;2023-02-18T01:38:13;24.20;;;15.40;;
5379;SDS011;2713;42.680;23.310;2023-02-18T01:40:44;22.87;;;15.97;;
5379;SDS011;2713;42.680;23.310;2023-02-18T01:43:13;22.63;;;15.37;;
5379;SDS011;2713;42.680;23.310;2023-02-18T01:45:51;23.47;;;15.63;;
5379;SDS011;2713;42.680;23.310;2023-02-18T01:48:24;27.43;;;15.50;;
5379;SDS011;2713;42.680;23.310;2023-02-18T01:50:56;23.83;;;15.90;;
5379;SDS011;2713;42.680;23.310;2023-02-18T01:53:30;17.60;;;15.07;;
5379;SDS011;2713;42.680;23.310;2023-02-18T01:56:01;20.23;;;13.77;;
5379;SDS011;2713;42.680;23.310;2023-02-18T01:58:31;21.80;;;15.50;;
5379;SDS011;2713;42.680;23.310;2023-02-18T02:01:00;23.93;;;15.83;;
5379;SDS011;2713;42.680;23.310;2023-02-18T02:03:27;26.67;;;16.27;;
5379;SDS011;2713;42.680;23.310;2023-02-18T02:05:54;23.40;;;14.77;;
5379;SDS011;2713;42.680;23.310;2023-02-18T02:08:20;23.10;;;15.00;;
5379;SDS011;2713;42.680;23.310;2023-02-18T02:10:54;21.80;;;14.47;;
5379;SDS011;2713;42.680;23.310;2023-02-18T02:13:33;20.10;;;13.67;;
5379;SDS011;2713;42.680;23.310;2023-02-18T02:16:14;21.97;;;13.80;;
5379;SDS011;2713;42.680;23.310;2023-02-18T02:18:50;23.27;;;13.57;;
5379;SDS011;2713;42.680;23.310;2023-02-18T02:21:38;19.30;;;14.43;;
5379;SDS011;2713;42.680;23.310;2023-02-18T02:24:28;21.70;;;15.73;;
5379;SDS011;2713;42.680;23.310;2023-02-18T02:27:16;21.37;;;14.40;;
5379;SDS011;2713;42.680;23.310;2023-02-18T02:36:18;23.10;;;13.50;;
5379;SDS011;2713;42.680;23.310;2023-02-18T02:38:54;18.60;;;13.27;;
5379;SDS011;2713;42.680;23.310;2023-02-18T02:41:31;21.10;;;13.47;;
5379;SDS011;2713;42.680;23.310;2023-02-18T02:44:15;21.97;;;13.53;;
5379;SDS011;2713;42.680;23.310;2023-02-18T02:46:46;22.33;;;13.40;;
5379;SDS011;2713;42.680;23.310;2023-02-18T02:49:19;19.30;;;13.57;;
5379;SDS011;2713;42.680;23.310;2023-02-18T02:52:00;22.57;;;14.07;;
5379;SDS011;2713;42.680;23.310;2023-02-18T02:54:31;20.40;;;13.27;;
5379;SDS011;2713;42.680;23.310;2023-02-18T02:57:06;21.43;;;12.27;;
5379;SDS011;2713;42.680;23.310;2023-02-18T02:59:40;17.67;;;13.00;;
5379;SDS011;2713;42.680;23.310;2023-02-18T03:02:15;20.93;;;13.97;;
5379;SDS011;2713;42.680;23.310;2023-02-18T03:04:53;24.00;;;14.10;;
5379;SDS011;2713;42.680;23.310;2023-02-18T03:07:42;17.80;;;13.10;;
5379;SDS011;2713;42.680;23.310;2023-02-18T03:10:24;24.73;;;14.13;;
5379;SDS011;2713;42.680;23.310;2023-02-18T03:13:03;18.30;;;12.60;;
5379;SDS011;2713;42.680;23.310;2023-02-18T03:15:38;18.70;;;12.67;;
5379;SDS011;2713;42.680;23.310;2023-02-18T03:18:16;18.37;;;12.70;;
5379;SDS011;2713;42.680;23.310;2023-02-18T03:20:50;18.97;;;12.63;;
5379;SDS011;2713;42.680;23.310;2023-02-18T03:23:23;19.10;;;13.63;;
5379;SDS011;2713;42.680;23.310;2023-02-18T03:25:54;18.80;;;13.37;;
5379;SDS011;2713;42.680;23.310;2023-02-18T03:28:22;19.27;;;12.60;;
5379;SDS011;2713;42.680;23.310;2023-02-18T03:30:54;17.23;;;12.63;;
5379;SDS011;2713;42.680;23.310;2023-02-18T03:33:25;17.93;;;12.87;;
5379;SDS011;2713;42.680;23.310;2023-02-18T03:35:56;16.63;;;11.87;;
5379;SDS011;2713;42.680;23.310;2023-02-18T03:38:25;23.63;;;13.27;;
5379;SDS011;2713;42.680;23.310;2023-02-18T03:40:57;23.67;;;14.13;;
5379;SDS011;2713;42.680;23.310;2023-02-18T03:43:24;21.10;;;14.00;;
5379;SDS011;2713;42.680;23.310;2023-02-18T03:45:52;20.23;;;14.03;;
5379;SDS011;2713;42.680;23.310;2023-02-18T03:48:19;20.10;;;14.27;;
5379;SDS011;2713;42.680;23.310;2023-02-18T03:50:46;24.43;;;13.43;;
5379;SDS011;2713;42.680;23.310;2023-02-18T03:53:13;20.87;;;13.07;;
5379;SDS011;2713;42.680;23.310;2023-02-18T03:55:41;22.93;;;13.97;;
5379;SDS011;2713;42.680;23.310;2023-02-18T03:58:08;20.90;;;13.20;;
5379;SDS011;2713;42.680;23.310;2023-02-18T04:00:35;22.33;;;13.80;;
5379;SDS011;2713;42.680;23.310;2023-02-18T04:03:02;19.00;;;13.77;;
5379;SDS011;2713;42.680;23.310;2023-02-18T04:05:29;24.80;;;15.20;;
5379;SDS011;2713;42.680;23.310;2023-02-18T04:07:55;24.67;;;15.17;;
5379;SDS011;2713;42.680;23.310;2023-02-18T04:10:22;22.60;;;15.10;;
5379;SDS011;2713;42.680;23.310;2023-02-18T04:12:50;25.70;;;17.40;;
5379;SDS011;2713;42.680;23.310;2023-02-18T04:15:17;22.37;;;14.40;;
5379;SDS011;2713;42.680;23.310;2023-02-18T04:17:44;23.67;;;14.60;;
5379;SDS011;2713;42.680;23.310;2023-02-18T04:20:11;23.43;;;13.87;;
5379;SDS011;2713;42.680;23.310;2023-02-18T04:22:38;23.17;;;15.00;;
5379;SDS011;2713;42.680;23.310;2023-02-18T04:25:05;20.83;;;14.83;;
5379;SDS011;2713;42.680;23.310;2023-02-18T04:27:33;26.10;;;14.67;;
5379;SDS011;2713;42.680;23.310;2023-02-18T04:30:01;21.47;;;13.60;;
5379;SDS011;2713;42.680;23.310;2023-02-18T04:32:28;19.77;;;14.30;;
5379;SDS011;2713;42.680;23.310;2023-02-18T04:34:55;21.77;;;14.33;;
5379;SDS011;2713;42.680;23.310;2023-02-18T04:37:22;22.80;;;14.13;;
5379;SDS011;2713;42.680;23.310;2023-02-18T04:39:49;23.90;;;14.63;;
5379;SDS011;2713;42.680;23.310;2023-02-18T04:42:16;19.50;;;14.53;;
5379;SDS011;2713;42.680;23.310;2023-02-18T04:44:42;20.40;;;14.20;;
5379;SDS011;2713;42.680;23.310;2023-02-18T04:47:11;20.17;;;14.60;;
5379;SDS011;2713;42.680;23.310;2023-02-18T04:49:37;20.70;;;14.90;;
5379;SDS011;2713;42.680;23.310;2023-02-18T04:52:04;21.43;;;13.73;;
5379;SDS011;2713;42.680;23.310;2023-02-18T04:54:31;24.67;;;13.97;;
5379;SDS011;2713;42.680;23.310;2023-02-18T04:56:58;29.47;;;14.50;;
5379;SDS011;2713;42.680;23.310;2023-02-18T04:59:25;21.60;;;13.87;;
5379;SDS011;2713;42.680;23.310;2023-02-18T05:01:52;23.60;;;14.20;;
5379;SDS011;2713;42.680;23.310;2023-02-18T05:04:20;21.17;;;14.43;;
5379;SDS011;2713;42.680;23.310;2023-02-18T05:06:47;24.20;;;14.70;;
5379;SDS011;2713;42.680;23.310;2023-02-18T05:09:14;22.90;;;15.13;;
5379;SDS011;2713;42.680;23.310;2023-02-18T05:11:41;25.03;;;14.70;;
5379;SDS011;2713;42.680;23.310;2023-02-18T05:14:09;22.17;;;14.20;;
5379;SDS011;2713;42.680;23.310;2023-02-18T05:16:36;26.93;;;15.30;;
5379;SDS011;2713;42.680;23.310;2023-02-18T05:19:03;23.83;;;15.10;;
5379;SDS011;2713;42.680;23.310;2023-02-18T05:21:31;30.53;;;16.10;;
5379;SDS011;2713;42.680;23.310;2023-02-18T05:23:58;22.27;;;15.37;;
5379;SDS011;2713;42.680;23.310;2023-02-18T05:26:25;23.80;;;14.90;;
5379;SDS011;2713;42.680;23.310;2023-02-18T05:28:52;28.80;;;15.70;;
5379;SDS011;2713;42.680;23.310;2023-02-18T05:31:19;22.80;;;14.60;;
5379;SDS011;2713;42.680;23.310;2023-02-18T05:33:45;18.83;;;13.70;;
5379;SDS011;2713;42.680;23.310;2023-02-18T05:36:12;23.57;;;13.97;;
5379;SDS011;2713;42.680;23.310;2023-02-18T05:38:40;23.60;;;14.60;;
5379;SDS011;2713;42.680;23.310;2023-02-18T05:41:07;22.07;;;14.50;;
5379;SDS011;2713;42.680;23.310;2023-02-18T05:43:34;19.90;;;13.87;;
5379;SDS011;2713;42.680;23.310;2023-02-18T05:46:21;24.47;;;14.60;;
5379;SDS011;2713;42.680;23.310;2023-02-18T05:48:48;18.90;;;13.20;;
5379;SDS011;2713;42.680;23.310;2023-02-18T05:51:15;18.47;;;13.97;;
5379;SDS011;2713;42.680;23.310;2023-02-18T05:53:43;19.53;;;13.63;;
5379;SDS011;2713;42.680;23.310;2023-02-18T05:56:10;22.47;;;13.10;;
5379;SDS011;2713;42.680;23.310;2023-02-18T05:58:37;21.70;;;13.17;;
5379;SDS011;2713;42.680;23.310;2023-02-18T06:01:04;24.83;;;13.70;;
5379;SDS011;2713;42.680;23.310;2023-02-18T06:03:31;24.37;;;13.77;;
5379;SDS011;2713;42.680;23.310;2023-02-18T06:05:58;21.23;;;13.70;;
5379;SDS011;2713;42.680;23.310;2023-02-18T06:08:25;21.33;;;13.67;;
5379;SDS011;2713;42.680;23.310;2023-02-18T06:10:53;34.20;;;21.00;;
5379;SDS011;2713;42.680;23.310;2023-02-18T06:13:20;24.10;;;13.93;;
5379;SDS011;2713;42.680;23.310;2023-02-18T06:15:49;18.60;;;12.43;;
5379;SDS011;2713;42.680;23.310;2023-02-18T06:18:15;25.00;;;13.73;;
5379;SDS011;2713;42.680;23.310;2023-02-18T06:20:42;24.90;;;13.47;;
5379;SDS011;2713;42.680;23.310;2023-02-18T06:23:09;21.70;;;14.30;;
5379;SDS011;2713;42.680;23.310;2023-02-18T06:25:36;23.67;;;14.70;;
5379;SDS011;2713;42.680;23.310;2023-02-18T06:28:04;23.27;;;14.57;;
5379;SDS011;2713;42.680;23.310;2023-02-18T06:30:31;21.20;;;14.27;;
5379;SDS011;2713;42.680;23.310;2023-02-18T06:32:58;22.23;;;14.40;;
5379;SDS011;2713;42.680;23.310;2023-02-18T06:35:28;20.90;;;13.83;;
5379;SDS011;2713;42.680;23.310;2023-02-18T06:37:55;18.80;;;12.70;;
5379;SDS011;2713;42.680;23.310;2023-02-18T06:40:22;17.07;;;12.87;;
5379;SDS011;2713;42.680;23.310;2023-02-18T06:42:48;18.67;;;12.40;;
5379;SDS011;2713;42.680;23.310;2023-02-18T06:45:17;18.63;;;12.73;;
5379;SDS011;2713;42.680;23.310;2023-02-18T06:47:43;21.03;;;12.13;;
5379;SDS011;2713;42.680;23.310;2023-02-18T06:50:10;19.33;;;12.93;;
5379;SDS011;2713;42.680;23.310;2023-02-18T06:52:37;17.37;;;12.13;;
5379;SDS011;2713;42.680;23.310;2023-02-18T06:55:04;28.23;;;17.47;;
5379;SDS011;2713;42.680;23.310;2023-02-18T06:57:32;26.30;;;14.00;;
5379;SDS011;2713;42.680;23.310;2023-02-18T06:59:59;32.50;;;18.97;;
5379;SDS011;2713;42.680;23.310;2023-02-18T07:02:27;25.00;;;14.90;;
5379;SDS011;2713;42.680;23.310;2023-02-18T07:04:54;20.03;;;13.50;;
5379;SDS011;2713;42.680;23.310;2023-02-18T07:07:20;21.40;;;13.10;;
5379;SDS011;2713;42.680;23.310;2023-02-18T07:09:47;25.43;;;13.13;;
5379;SDS011;2713;42.680;23.310;2023-02-18T07:12:14;23.57;;;13.13;;
5379;SDS011;2713;42.680;23.310;2023-02-18T07:14:41;23.37;;;13.53;;
5379;SDS011;2713;42.680;23.310;2023-02-18T07:17:07;24.20;;;12.83;;
5379;SDS011;2713;42.680;23.310;2023-02-18T07:19:36;18.23;;;12.07;;
5379;SDS011;2713;42.680;23.310;2023-02-18T07:22:02;21.03;;;12.90;;
5379;SDS011;2713;42.680;23.310;2023-02-18T07:24:29;22.93;;;15.60;;
5379;SDS011;2713;42.680;23.310;2023-02-18T07:26:56;26.23;;;15.30;;
5379;SDS011;2713;42.680;23.310;2023-02-18T07:29:23;21.77;;;14.30;;
5379;SDS011;2713;42.680;23.310;2023-02-18T07:31:50;20.50;;;13.10;;
5379;SDS011;2713;42.680;23.310;2023-02-18T07:34:17;29.77;;;18.03;;
5379;SDS011;2713;42.680;23.310;2023-02-18T07:36:45;21.47;;;14.60;;
5379;SDS011;2713;42.680;23.310;2023-02-18T07:39:12;23.03;;;12.90;;
5379;SDS011;2713;42.680;23.310;2023-02-18T07:41:38;20.00;;;13.10;;
5379;SDS011;2713;42.680;23.310;2023-02-18T07:44:13;19.90;;;13.30;;
5379;SDS011;2713;42.680;23.310;2023-02-18T07:46:40;23.23;;;14.07;;
5379;SDS011;2713;42.680;23.310;2023-02-18T07:49:07;21.70;;;14.07;;
5379;SDS011;2713;42.680;23.310;2023-02-18T07:51:34;20.03;;;14.40;;
5379;SDS011;2713;42.680;23.310;2023-02-18T07:54:04;22.17;;;14.63;;
5379;SDS011;2713;42.680;23.310;2023-02-18T07:56:31;21.97;;;13.70;;
5379;SDS011;2713;42.680;23.310;2023-02-18T07:58:57;27.10;;;14.30;;
5379;SDS011;2713;42.680;23.310;2023-02-18T08:01:24;23.03;;;13.63;;
5379;SDS011;2713;42.680;23.310;2023-02-18T08:03:51;20.10;;;13.60;;
5379;SDS011;2713;42.680;23.310;2023-02-18T08:06:19;22.80;;;14.83;;
5379;SDS011;2713;42.680;23.310;2023-02-18T08:08:47;25.47;;;13.90;;
5379;SDS011;2713;42.680;23.310;2023-02-18T08:11:15;21.93;;;13.63;;
5379;SDS011;2713;42.680;23.310;2023-02-18T08:13:42;21.67;;;14.10;;
5379;SDS011;2713;42.680;23.310;2023-02-18T08:16:09;22.17;;;14.20;;
5379;SDS011;2713;42.680;23.310;2023-02-18T08:18:36;20.53;;;13.47;;
5379;SDS011;2713;42.680;23.310;2023-02-18T08:21:02;25.40;;;14.83;;
5379;SDS011;2713;42.680;23.310;2023-02-18T08:23:29;20.30;;;14.30;;
5379;SDS011;2713;42.680;23.310;2023-02-18T08:25:56;22.50;;;13.90;;
5379;SDS011;2713;42.680;23.310;2023-02-18T08:28:25;23.50;;;15.00;;
5379;SDS011;2713;42.680;23.310;2023-02-18T08:30:52;29.50;;;16.53;;
5379;SDS011;2713;42.680;23.310;2023-02-18T08:33:20;20.20;;;14.70;;
5379;SDS011;2713;42.680;23.310;2023-02-18T08:35:49;25.17;;;14.53;;
5379;SDS011;2713;42.680;23.310;2023-02-18T08:38:17;26.70;;;14.87;;
5379;SDS011;2713;42.680;23.310;2023-02-18T08:40:44;23.03;;;14.50;;
5379;SDS011;2713;42.680;23.310;2023-02-18T08:43:11;21.13;;;15.10;;
5379;SDS011;2713;42.680;23.310;2023-02-18T08:45:40;25.27;;;15.20;;
5379;SDS011;2713;42.680;23.310;2023-02-18T08:48:08;22.63;;;14.77;;
5379;SDS011;2713;42.680;23.310;2023-02-18T08:50:36;23.37;;;14.20;;
5379;SDS011;2713;42.680;23.310;2023-02-18T08:53:03;23.57;;;15.43;;
5379;SDS011;2713;42.680;23.310;2023-02-18T08:55:31;28.90;;;15.90;;
5379;SDS011;2713;42.680;23.310;2023-02-18T08:57:59;24.33;;;14.97;;
5379;SDS011;2713;42.680;23.310;2023-02-18T09:00:26;22.37;;;15.37;;
5379;SDS011;2713;42.680;23.310;2023-02-18T09:02:54;27.23;;;15.07;;
5379;SDS011;2713;42.680;23.310;2023-02-18T09:05:21;22.87;;;14.80;;
5379;SDS011;2713;42.680;23.310;2023-02-18T09:07:48;28.03;;;14.80;;
5379;SDS011;2713;42.680;23.310;2023-02-18T09:10:15;22.13;;;15.20;;
5379;SDS011;2713;42.680;23.310;2023-02-18T09:12:42;21.23;;;15.30;;
5379;SDS011;2713;42.680;23.310;2023-02-18T09:15:09;31.13;;;16.50;;
5379;SDS011;2713;42.680;23.310;2023-02-18T09:17:36;25.30;;;14.93;;
5379;SDS011;2713;42.680;23.310;2023-02-18T09:20:05;22.37;;;15.90;;
5379;SDS011;2713;42.680;23.310;2023-02-18T09:22:32;29.13;;;15.70;;
5379;SDS011;2713;42.680;23.310;2023-02-18T09:24:59;22.30;;;13.93;;
5379;SDS011;2713;42.680;23.310;2023-02-18T09:27:26;22.87;;;15.53;;
5379;SDS011;2713;42.680;23.310;2023-02-18T09:29:53;22.83;;;15.93;;
5379;SDS011;2713;42.680;23.310;2023-02-18T09:32:20;27.90;;;14.93;;
5379;SDS011;2713;42.680;23.310;2023-02-18T09:34:46;22.93;;;15.23;;
5379;SDS011;2713;42.680;23.310;2023-02-18T09:37:15;24.47;;;16.17;;
5379;SDS011;2713;42.680;23.310;2023-02-18T09:39:42;26.50;;;15.10;;
5379;SDS011;2713;42.680;23.310;2023-02-18T09:42:10;28.23;;;16.57;;
5379;SDS011;2713;42.680;23.310;2023-02-18T09:44:42;26.33;;;16.40;;
5379;SDS011;2713;42.680;23.310;2023-02-18T09:47:14;25.20;;;16.43;;
5379;SDS011;2713;42.680;23.310;2023-02-18T09:49:45;22.10;;;15.77;;
5379;SDS011;2713;42.680;23.310;2023-02-18T09:52:18;21.73;;;15.57;;
5379;SDS011;2713;42.680;23.310;2023-02-18T09:54:48;25.73;;;14.80;;
5379;SDS011;2713;42.680;23.310;2023-02-18T09:57:17;21.87;;;14.83;;
5379;SDS011;2713;42.680;23.310;2023-02-18T09:59:51;23.90;;;15.57;;
5379;SDS011;2713;42.680;23.310;2023-02-18T10:02:25;27.17;;;16.00;;
5379;SDS011;2713;42.680;23.310;2023-02-18T10:04:53;27.30;;;14.73;;
5379;SDS011;2713;42.680;23.310;2023-02-18T10:07:23;20.20;;;14.47;;
5379;SDS011;2713;42.680;23.310;2023-02-18T10:09:53;31.10;;;18.60;;
5379;SDS011;2713;42.680;23.310;2023-02-18T10:12:22;23.57;;;16.13;;
5379;SDS011;2713;42.680;23.310;2023-02-18T10:14:50;21.73;;;15.00;;
5379;SDS011;2713;42.680;23.310;2023-02-18T10:17:20;23.07;;;15.30;;
5379;SDS011;2713;42.680;23.310;2023-02-18T10:19:50;22.30;;;14.53;;
5379;SDS011;2713;42.680;23.310;2023-02-18T10:22:18;21.90;;;14.10;;
5379;SDS011;2713;42.680;23.310;2023-02-18T10:24:49;18.43;;;14.10;;
5379;SDS011;2713;42.680;23.310;2023-02-18T10:27:20;20.50;;;12.67;;
5379;SDS011;2713;42.680;23.310;2023-02-18T10:29:50;20.17;;;12.90;;
5379;SDS011;2713;42.680;23.310;2023-02-18T10:32:18;19.07;;;12.77;;
5379;SDS011;2713;42.680;23.310;2023-02-18T10:34:50;23.00;;;13.17;;
5379;SDS011;2713;42.680;23.310;2023-02-18T10:37:33;18.73;;;12.70;;
5379;SDS011;2713;42.680;23.310;2023-02-18T10:40:16;18.67;;;11.40;;
5379;SDS011;2713;42.680;23.310;2023-02-18T10:42:54;14.23;;;11.20;;
5379;SDS011;2713;42.680;23.310;2023-02-18T10:45:32;14.60;;;10.43;;
5379;SDS011;2713;42.680;23.310;2023-02-18T10:48:12;15.00;;;11.67;;
5379;SDS011;2713;42.680;23.310;2023-02-18T10:50:55;17.47;;;13.30;;
5379;SDS011;2713;42.680;23.310;2023-02-18T10:53:28;18.47;;;14.00;;
5379;SDS011;2713;42.680;23.310;2023-02-18T10:55:59;24.50;;;13.50;;
5379;SDS011;2713;42.680;23.310;2023-02-18T10:58:29;22.07;;;15.60;;
5379;SDS011;2713;42.680;23.310;2023-02-18T11:00:59;12.60;;;9.43;;
5379;SDS011;2713;42.680;23.310;2023-02-18T11:03:38;11.63;;;9.33;;
5379;SDS011;2713;42.680;23.310;2023-02-18T11:06:06;17.17;;;10.80;;
5379;SDS011;2713;42.680;23.310;2023-02-18T11:08:45;16.43;;;10.30;;
5379;SDS011;2713;42.680;23.310;2023-02-18T11:11:15;16.00;;;9.43;;
5379;SDS011;2713;42.680;23.310;2023-02-18T11:13:43;14.13;;;9.27;;
5379;SDS011;2713;42.680;23.310;2023-02-18T11:16:16;14.43;;;9.83;;
5379;SDS011;2713;42.680;23.310;2023-02-18T11:18:47;12.30;;;10.63;;
5379;SDS011;2713;42.680;23.310;2023-02-18T11:21:19;14.87;;;9.53;;
5379;SDS011;2713;42.680;23.310;2023-02-18T11:23:51;10.60;;;7.90;;
5379;SDS011;2713;42.680;23.310;2023-02-18T11:26:23;10.03;;;5.77;;
5379;SDS011;2713;42.680;23.310;2023-02-18T11:28:55;6.77;;;5.40;;
5379;SDS011;2713;42.680;23.310;2023-02-18T11:31:33;6.63;;;5.10;;
5379;SDS011;2713;42.680;23.310;2023-02-18T11:34:13;7.73;;;5.63;;
5379;SDS011;2713;42.680;23.310;2023-02-18T11:36:42;7.90;;;5.50;;
5379;SDS011;2713;42.680;23.310;2023-02-18T11:39:16;6.03;;;5.43;;
5379;SDS011;2713;42.680;23.310;2023-02-18T11:41:52;6.80;;;5.63;;
5379;SDS011;2713;42.680;23.310;2023-02-18T11:44:22;8.10;;;3.77;;
5379;SDS011;2713;42.680;23.310;2023-02-18T11:46:58;8.23;;;3.40;;
5379;SDS011;2713;42.680;23.310;2023-02-18T11:49:26;8.20;;;3.13;;
5379;SDS011;2713;42.680;23.310;2023-02-18T11:51:54;3.23;;;3.03;;
5379;SDS011;2713;42.680;23.310;2023-02-18T11:54:31;4.13;;;2.97;;
5379;SDS011;2713;42.680;23.310;2023-02-18T11:57:02;6.27;;;3.30;;
5379;SDS011;2713;42.680;23.310;2023-02-18T11:59:31;6.03;;;4.60;;
5379;SDS011;2713;42.680;23.310;2023-02-18T12:02:02;8.20;;;3.43;;
5379;SDS011;2713;42.680;23.310;2023-02-18T12:04:51;4.50;;;3.80;;
5379;SDS011;2713;42.680;23.310;2023-02-18T12:07:26;5.30;;;3.80;;
5379;SDS011;2713;42.680;23.310;2023-02-18T12:09:57;5.80;;;3.70;;
5379;SDS011;2713;42.680;23.310;2023-02-18T12:12:28;7.23;;;4.30;;
5379;SDS011;2713;42.680;23.310;2023-02-18T12:14:58;5.10;;;4.60;;
5379;SDS011;2713;42.680;23.310;2023-02-18T12:17:30;7.90;;;4.77;;
5379;SDS011;2713;42.680;23.310;2023-02-18T12:20:18;8.37;;;4.97;;
5379;SDS011;2713;42.680;23.310;2023-02-18T12:22:58;9.10;;;5.07;;
5379;SDS011;2713;42.680;23.310;2023-02-18T12:25:36;6.80;;;5.03;;
5379;SDS011;2713;42.680;23.310;2023-02-18T12:34:02;10.00;;;5.67;;
5379;SDS011;2713;42.680;23.310;2023-02-18T12:36:46;7.30;;;5.53;;
5379;SDS011;2713;42.680;23.310;2023-02-18T12:39:27;10.90;;;5.40;;
5379;SDS011;2713;42.680;23.310;2023-02-18T12:42:11;8.80;;;6.20;;
5379;SDS011;2713;42.680;23.310;2023-02-18T12:44:52;8.60;;;5.20;;
5379;SDS011;2713;42.680;23.310;2023-02-18T12:47:37;10.97;;;7.50;;
5379;SDS011;2713;42.680;23.310;2023-02-18T12:50:26;11.27;;;6.47;;
5379;SDS011;2713;42.680;23.310;2023-02-18T12:53:13;7.20;;;5.20;;
5379;SDS011;2713;42.680;23.310;2023-02-18T12:55:56;6.17;;;5.20;;
5379;SDS011;2713;42.680;23.310;2023-02-18T12:58:34;6.83;;;5.30;;
5379;SDS011;2713;42.680;23.310;2023-02-18T13:01:19;5.50;;;5.00;;
5379;SDS011;2713;42.680;23.310;2023-02-18T13:04:14;5.40;;;4.90;;
5379;SDS011;2713;42.680;23.310;2023-02-18T13:09:43;6.80;;;5.40;;
5379;SDS011;2713;42.680;23.310;2023-02-18T13:12:19;10.77;;;8.53;;
5379;SDS011;2713;42.680;23.310;2023-02-18T13:14:54;5.83;;;5.23;;
5379;SDS011;2713;42.680;23.310;2023-02-18T13:17:28;5.70;;;4.70;;
5379;SDS011;2713;42.680;23.310;2023-02-18T13:20:02;10.23;;;6.40;;
5379;SDS011;2713;42.680;23.310;2023-02-18T13:22:32;6.67;;;5.17;;
5379;SDS011;2713;42.680;23.310;2023-02-18T13:24:59;7.27;;;5.10;;
5379;SDS011;2713;42.680;23.310;2023-02-18T13:27:27;8.13;;;5.00;;
5379;SDS011;2713;42.680;23.310;2023-02-18T13:30:08;9.10;;;4.90;;
5379;SDS011;2713;42.680;23.310;2023-02-18T13:32:49;6.90;;;5.27;;
5379;SDS011;2713;42.680;23.310;2023-02-18T13:35:26;6.40;;;5.37;;
5379;SDS011;2713;42.680;23.310;2023-02-18T13:38:01;5.27;;;4.77;;
5379;SDS011;2713;42.680;23.310;2023-02-18T13:40:39;8.57;;;5.00;;
5379;SDS011;2713;42.680;23.310;2023-02-18T13:43:17;9.90;;;5.70;;
5379;SDS011;2713;42.680;23.310;2023-02-18T13:46:01;5.93;;;5.40;;
5379;SDS011;2713;42.680;23.310;2023-02-18T13:48:38;8.70;;;6.83;;
5379;SDS011;2713;42.680;23.310;2023-02-18T13:51:10;6.77;;;5.50;;
5379;SDS011;2713;42.680;23.310;2023-02-18T13:53:39;6.30;;;5.03;;
5379;SDS011;2713;42.680;23.310;2023-02-18T13:56:09;9.00;;;5.13;;
5379;SDS011;2713;42.680;23.310;2023-02-18T13:58:47;8.20;;;5.63;;
5379;SDS011;2713;42.680;23.310;2023-02-18T14:01:19;5.83;;;5.20;;
5379;SDS011;2713;42.680;23.310;2023-02-18T14:03:57;7.03;;;5.20;;
5379;SDS011;2713;42.680;23.310;2023-02-18T14:06:26;8.00;;;5.40;;
5379;SDS011;2713;42.680;23.310;2023-02-18T14:09:02;9.17;;;6.37;;
5379;SDS011;2713;42.680;23.310;2023-02-18T14:12:14;9.07;;;5.10;;
5379;SDS011;2713;42.680;23.310;2023-02-18T14:14:51;6.30;;;5.00;;
5379;SDS011;2713;42.680;23.310;2023-02-18T14:26:15;7.13;;;4.70;;
5379;SDS011;2713;42.680;23.310;2023-02-18T14:28:48;8.50;;;5.40;;
5379;SDS011;2713;42.680;23.310;2023-02-18T14:31:29;10.80;;;5.20;;
5379;SDS011;2713;42.680;23.310;2023-02-18T14:34:08;8.00;;;5.30;;
5379;SDS011;2713;42.680;23.310;2023-02-18T14:37:03;9.00;;;5.80;;
5379;SDS011;2713;42.680;23.310;2023-02-18T14:39:50;7.43;;;5.00;;
5379;SDS011;2713;42.680;23.310;2023-02-18T14:42:30;6.13;;;5.20;;
5379;SDS011;2713;42.680;23.310;2023-02-18T14:45:08;8.37;;;6.40;;
5379;SDS011;2713;42.680;23.310;2023-02-18T14:47:48;7.50;;;5.73;;
5379;SDS011;2713;42.680;23.310;2023-02-18T14:50:25;7.67;;;5.30;;
5379;SDS011;2713;42.680;23.310;2023-02-18T14:52:57;6.30;;;4.93;;
5379;SDS011;2713;42.680;23.310;2023-02-18T14:55:31;7.43;;;5.30;;
5379;SDS011;2713;42.680;23.310;2023-02-18T14:58:01;6.87;;;5.60;;
5379;SDS011;2713;42.680;23.310;2023-02-18T15:00:32;7.27;;;5.37;;
5379;SDS011;2713;42.680;23.310;2023-02-18T15:03:00;7.70;;;5.67;;
5379;SDS011;2713;42.680;23.310;2023-02-18T15:05:28;7.00;;;5.33;;
5379;SDS011;2713;42.680;23.310;2023-02-18T15:07:58;6.47;;;5.60;;
5379;SDS011;2713;42.680;23.310;2023-02-18T15:10:32;7.67;;;5.50;;
5379;SDS011;2713;42.680;23.310;2023-02-18T15:13:04;9.93;;;5.67;;
5379;SDS011;2713;42.680;23.310;2023-02-18T15:15:34;6.70;;;5.33;;
5379;SDS011;2713;42.680;23.310;2023-02-18T15:18:02;6.93;;;5.60;;
5379;SDS011;2713;42.680;23.310;2023-02-18T15:20:31;7.80;;;6.00;;
5379;SDS011;2713;42.680;23.310;2023-02-18T15:22:59;8.40;;;5.70;;
5379;SDS011;2713;42.680;23.310;2023-02-18T15:25:27;6.40;;;5.20;;
5379;SDS011;2713;42.680;23.310;2023-02-18T15:27:55;8.70;;;6.00;;